sensor_id;sensor_type;location;lat;lon;timestamp;P1;durP1;ratioP1;P2;durP2;ratioP2
20318;SDS011;10317;47.254;11.314;2023-08-17T11:10:56;32.30;;;7.60;;
20318;SDS011;10317;47.254;11.314;2023-08-17T11:13:23;41.50;;;8.20;;
20318;SDS011;10317;47.254;11.314;2023-08-17T11:15:49;48.75;;;8.80;;
20318;SDS011;10317;47.254;11.314;2023-08-17T11:18:15;42.10;;;8.82;;
20318;SDS011;10317;47.254;11.314;2023-08-17T11:20:41;52.80;;;10.02;;
20318;SDS011;10317;47.254;11.314;2023-08-17T11:23:08;40.83;;;9.43;;
20318;SDS011;10317;47.254;11.314;2023-08-17T11:25:34;55.65;;;11.32;;
20318;SDS011;10317;47.254;11.314;2023-08-17T11:28:01;43.00;;;9.82;;
20318;SDS011;10317;47.254;11.314;2023-08-17T11:30:28;43.45;;;7.97;;
20318;SDS011;10317;47.254;11.314;2023-08-17T11:32:54;39.50;;;9.13;;
20318;SDS011;10317;47.254;11.314;2023-08-17T11:35:23;46.28;;;10.13;;
20318;SDS011;10317;47.254;11.314;2023-08-17T11:37:48;47.85;;;10.38;;
20318;SDS011;10317;47.254;11.314;2023-08-17T11:40:14;33.08;;;8.52;;
20318;SDS011;10317;47.254;11.314;2023-08-17T11:42:41;36.72;;;8.15;;
20318;SDS011;10317;47.254;11.314;2023-08-17T11:45:08;28.60;;;6.97;;
20318;SDS011;10317;47.254;11.314;2023-08-17T11:47:34;26.33;;;6.97;;
20318;SDS011;10317;47.254;11.314;2023-08-17T11:50:01;36.10;;;7.65;;
20318;SDS011;10317;47.254;11.314;2023-08-17T11:52:28;24.48;;;6.88;;
20318;SDS011;10317;47.254;11.314;2023-08-17T11:54:54;26.98;;;6.97;;
20318;SDS011;10317;47.254;11.314;2023-08-17T11:57:21;40.10;;;7.72;;
20318;SDS011;10317;47.254;11.314;2023-08-17T11:59:47;27.08;;;6.57;;
20318;SDS011;10317;47.254;11.314;2023-08-17T12:02:12;25.02;;;6.18;;
20318;SDS011;10317;47.254;11.314;2023-08-17T12:04:38;27.48;;;6.63;;
20318;SDS011;10317;47.254;11.314;2023-08-17T12:07:04;22.08;;;5.65;;
20318;SDS011;10317;47.254;11.314;2023-08-17T12:09:33;31.52;;;6.82;;
20318;SDS011;10317;47.254;11.314;2023-08-17T12:12:00;26.15;;;6.25;;
20318;SDS011;10317;47.254;11.314;2023-08-17T12:14:26;27.90;;;5.88;;
20318;SDS011;10317;47.254;11.314;2023-08-17T12:16:53;16.70;;;5.65;;
20318;SDS011;10317;47.254;11.314;2023-08-17T12:19:19;18.20;;;5.45;;
20318;SDS011;10317;47.254;11.314;2023-08-17T12:21:46;20.48;;;5.05;;
20318;SDS011;10317;47.254;11.314;2023-08-17T12:24:13;17.52;;;5.53;;
20318;SDS011;10317;47.254;11.314;2023-08-17T12:26:41;16.27;;;5.38;;
20318;SDS011;10317;47.254;11.314;2023-08-17T12:29:08;18.77;;;5.43;;
20318;SDS011;10317;47.254;11.314;2023-08-17T12:31:34;16.65;;;5.60;;
20318;SDS011;10317;47.254;11.314;2023-08-17T12:34:00;15.05;;;5.13;;
20318;SDS011;10317;47.254;11.314;2023-08-17T12:36:26;14.73;;;5.32;;
20318;SDS011;10317;47.254;11.314;2023-08-17T12:38:52;21.48;;;5.45;;
20318;SDS011;10317;47.254;11.314;2023-08-17T12:41:18;17.58;;;5.78;;
20318;SDS011;10317;47.254;11.314;2023-08-17T12:43:44;21.88;;;5.50;;
20318;SDS011;10317;47.254;11.314;2023-08-17T12:46:09;23.50;;;5.35;;
20318;SDS011;10317;47.254;11.314;2023-08-17T12:48:38;15.98;;;5.25;;
20318;SDS011;10317;47.254;11.314;2023-08-17T12:51:04;16.15;;;4.82;;
20318;SDS011;10317;47.254;11.314;2023-08-17T12:53:30;16.80;;;4.45;;
20318;SDS011;10317;47.254;11.314;2023-08-17T12:55:55;18.23;;;5.38;;
20318;SDS011;10317;47.254;11.314;2023-08-17T12:58:21;19.45;;;5.00;;
20318;SDS011;10317;47.254;11.314;2023-08-17T13:00:47;15.63;;;5.25;;
20318;SDS011;10317;47.254;11.314;2023-08-17T13:03:15;18.90;;;4.85;;
20318;SDS011;10317;47.254;11.314;2023-08-17T13:05:42;13.93;;;5.13;;
20318;SDS011;10317;47.254;11.314;2023-08-17T13:08:07;13.40;;;4.53;;
20318;SDS011;10317;47.254;11.314;2023-08-17T13:10:34;11.93;;;4.22;;
20318;SDS011;10317;47.254;11.314;2023-08-17T13:12:59;17.65;;;4.40;;
20318;SDS011;10317;47.254;11.314;2023-08-17T13:15:25;17.23;;;5.00;;
20318;SDS011;10317;47.254;11.314;2023-08-17T13:17:51;13.98;;;4.10;;
20318;SDS011;10317;47.254;11.314;2023-08-17T13:20:16;11.30;;;4.30;;
20318;SDS011;10317;47.254;11.314;2023-08-17T13:22:42;20.50;;;5.15;;
20318;SDS011;10317;47.254;11.314;2023-08-17T13:25:08;16.15;;;4.65;;
20318;SDS011;10317;47.254;11.314;2023-08-17T13:27:34;15.68;;;4.38;;
20318;SDS011;10317;47.254;11.314;2023-08-17T13:29:59;12.35;;;3.85;;
20318;SDS011;10317;47.254;11.314;2023-08-17T13:32:26;20.33;;;5.00;;
20318;SDS011;10317;47.254;11.314;2023-08-17T13:34:52;12.05;;;4.38;;
20318;SDS011;10317;47.254;11.314;2023-08-17T13:37:18;18.75;;;6.07;;
20318;SDS011;10317;47.254;11.314;2023-08-17T13:39:45;12.57;;;4.05;;
20318;SDS011;10317;47.254;11.314;2023-08-17T13:42:11;9.93;;;3.50;;
20318;SDS011;10317;47.254;11.314;2023-08-17T13:44:37;11.50;;;4.25;;
20318;SDS011;10317;47.254;11.314;2023-08-17T13:47:03;10.88;;;3.38;;
20318;SDS011;10317;47.254;11.314;2023-08-17T13:49:29;9.07;;;3.63;;
20318;SDS011;10317;47.254;11.314;2023-08-17T13:51:54;11.70;;;3.97;;
20318;SDS011;10317;47.254;11.314;2023-08-17T13:54:23;13.27;;;3.60;;
20318;SDS011;10317;47.254;11.314;2023-08-17T13:56:49;16.30;;;4.75;;
20318;SDS011;10317;47.254;11.314;2023-08-17T13:59:16;9.88;;;3.95;;
20318;SDS011;10317;47.254;11.314;2023-08-17T14:01:41;8.98;;;4.15;;
20318;SDS011;10317;47.254;11.314;2023-08-17T14:04:07;10.05;;;3.70;;
20318;SDS011;10317;47.254;11.314;2023-08-17T14:06:39;8.18;;;3.92;;
20318;SDS011;10317;47.254;11.314;2023-08-17T14:09:05;10.32;;;4.40;;
20318;SDS011;10317;47.254;11.314;2023-08-17T14:11:31;10.05;;;4.30;;
20318;SDS011;10317;47.254;11.314;2023-08-17T14:13:57;9.52;;;4.50;;
20318;SDS011;10317;47.254;11.314;2023-08-17T14:16:23;8.27;;;3.92;;
20318;SDS011;10317;47.254;11.314;2023-08-17T14:18:48;11.90;;;3.95;;
20318;SDS011;10317;47.254;11.314;2023-08-17T14:21:14;13.38;;;4.85;;
20318;SDS011;10317;47.254;11.314;2023-08-17T14:23:40;12.10;;;3.97;;
20318;SDS011;10317;47.254;11.314;2023-08-17T14:26:05;9.25;;;3.25;;
20318;SDS011;10317;47.254;11.314;2023-08-17T14:28:32;10.35;;;3.80;;
20318;SDS011;10317;47.254;11.314;2023-08-17T14:30:57;9.25;;;3.95;;
20318;SDS011;10317;47.254;11.314;2023-08-17T14:33:23;9.07;;;3.45;;
20318;SDS011;10317;47.254;11.314;2023-08-17T14:35:49;11.18;;;3.55;;
20318;SDS011;10317;47.254;11.314;2023-08-17T14:38:15;6.90;;;3.65;;
20318;SDS011;10317;47.254;11.314;2023-08-17T14:40:42;6.88;;;3.88;;
20318;SDS011;10317;47.254;11.314;2023-08-17T14:43:10;11.95;;;3.85;;
20318;SDS011;10317;47.254;11.314;2023-08-17T14:45:39;8.65;;;3.25;;
20318;SDS011;10317;47.254;11.314;2023-08-17T14:48:06;10.57;;;3.13;;
20318;SDS011;10317;47.254;11.314;2023-08-17T14:50:32;8.50;;;3.00;;
20318;SDS011;10317;47.254;11.314;2023-08-17T14:52:59;6.82;;;3.88;;
20318;SDS011;10317;47.254;11.314;2023-08-17T14:55:27;10.25;;;3.53;;
20318;SDS011;10317;47.254;11.314;2023-08-17T14:57:54;7.57;;;3.40;;
20318;SDS011;10317;47.254;11.314;2023-08-17T15:00:20;14.68;;;3.75;;
20318;SDS011;10317;47.254;11.314;2023-08-17T15:02:45;7.70;;;3.58;;
20318;SDS011;10317;47.254;11.314;2023-08-17T15:05:11;10.27;;;3.85;;
20318;SDS011;10317;47.254;11.314;2023-08-17T15:07:37;7.63;;;2.85;;
20318;SDS011;10317;47.254;11.314;2023-08-17T15:10:02;9.32;;;4.03;;
20318;SDS011;10317;47.254;11.314;2023-08-17T15:12:28;10.40;;;3.53;;
20318;SDS011;10317;47.254;11.314;2023-08-17T15:14:54;7.93;;;3.22;;
20318;SDS011;10317;47.254;11.314;2023-08-17T15:17:19;12.73;;;4.53;;
20318;SDS011;10317;47.254;11.314;2023-08-17T15:19:45;11.80;;;4.20;;
20318;SDS011;10317;47.254;11.314;2023-08-17T15:22:11;13.20;;;5.05;;
20318;SDS011;10317;47.254;11.314;2023-08-17T15:24:36;12.88;;;3.47;;
20318;SDS011;10317;47.254;11.314;2023-08-17T15:27:02;7.38;;;3.40;;
20318;SDS011;10317;47.254;11.314;2023-08-17T15:29:28;8.55;;;2.78;;
20318;SDS011;10317;47.254;11.314;2023-08-17T15:31:53;10.40;;;3.83;;
20318;SDS011;10317;47.254;11.314;2023-08-17T15:34:19;12.18;;;3.45;;
20318;SDS011;10317;47.254;11.314;2023-08-17T15:36:45;6.15;;;3.38;;
20318;SDS011;10317;47.254;11.314;2023-08-17T15:39:10;14.82;;;3.70;;
20318;SDS011;10317;47.254;11.314;2023-08-17T15:41:37;9.32;;;3.63;;
20318;SDS011;10317;47.254;11.314;2023-08-17T15:44:03;6.25;;;2.67;;
20318;SDS011;10317;47.254;11.314;2023-08-17T15:46:28;12.48;;;4.82;;
20318;SDS011;10317;47.254;11.314;2023-08-17T15:48:55;14.90;;;4.03;;
20318;SDS011;10317;47.254;11.314;2023-08-17T15:51:21;9.45;;;3.65;;
20318;SDS011;10317;47.254;11.314;2023-08-17T15:53:48;14.10;;;3.88;;
20318;SDS011;10317;47.254;11.314;2023-08-17T15:56:14;8.82;;;3.80;;
20318;SDS011;10317;47.254;11.314;2023-08-17T15:58:40;7.13;;;2.60;;
20318;SDS011;10317;47.254;11.314;2023-08-17T16:01:06;11.63;;;3.28;;
20318;SDS011;10317;47.254;11.314;2023-08-17T16:03:32;10.93;;;3.30;;
20318;SDS011;10317;47.254;11.314;2023-08-17T16:05:57;6.78;;;3.80;;
20318;SDS011;10317;47.254;11.314;2023-08-17T16:08:23;8.52;;;3.15;;
20318;SDS011;10317;47.254;11.314;2023-08-17T16:10:48;11.43;;;3.40;;
20318;SDS011;10317;47.254;11.314;2023-08-17T16:13:14;13.60;;;2.95;;
20318;SDS011;10317;47.254;11.314;2023-08-17T16:15:40;11.13;;;4.07;;
20318;SDS011;10317;47.254;11.314;2023-08-17T16:18:06;11.02;;;4.45;;
20318;SDS011;10317;47.254;11.314;2023-08-17T16:20:31;8.02;;;3.70;;
20318;SDS011;10317;47.254;11.314;2023-08-17T16:22:59;16.10;;;3.63;;
20318;SDS011;10317;47.254;11.314;2023-08-17T16:25:25;14.00;;;3.72;;
20318;SDS011;10317;47.254;11.314;2023-08-17T16:27:52;12.95;;;4.05;;
20318;SDS011;10317;47.254;11.314;2023-08-17T16:30:18;9.25;;;3.92;;
20318;SDS011;10317;47.254;11.314;2023-08-17T16:32:43;22.15;;;7.38;;
20318;SDS011;10317;47.254;11.314;2023-08-17T16:35:09;26.33;;;8.63;;
20318;SDS011;10317;47.254;11.314;2023-08-17T16:37:34;38.78;;;9.48;;
20318;SDS011;10317;47.254;11.314;2023-08-17T16:40:00;22.05;;;7.07;;
20318;SDS011;10317;47.254;11.314;2023-08-17T16:42:28;21.83;;;8.07;;
20318;SDS011;10317;47.254;11.314;2023-08-17T16:44:53;16.52;;;6.15;;
20318;SDS011;10317;47.254;11.314;2023-08-17T16:47:19;16.90;;;5.45;;
20318;SDS011;10317;47.254;11.314;2023-08-17T16:49:46;20.48;;;6.50;;
20318;SDS011;10317;47.254;11.314;2023-08-17T16:52:12;16.80;;;6.57;;
20318;SDS011;10317;47.254;11.314;2023-08-17T16:54:38;15.90;;;6.53;;
20318;SDS011;10317;47.254;11.314;2023-08-17T16:57:03;24.58;;;7.50;;
20318;SDS011;10317;47.254;11.314;2023-08-17T16:59:29;16.73;;;6.03;;
20318;SDS011;10317;47.254;11.314;2023-08-17T17:01:56;12.45;;;6.65;;
20318;SDS011;10317;47.254;11.314;2023-08-17T17:04:22;22.02;;;7.25;;
20318;SDS011;10317;47.254;11.314;2023-08-17T17:06:48;15.75;;;6.70;;
20318;SDS011;10317;47.254;11.314;2023-08-17T17:09:15;16.17;;;6.88;;
20318;SDS011;10317;47.254;11.314;2023-08-17T17:11:43;13.98;;;6.13;;
20318;SDS011;10317;47.254;11.314;2023-08-17T17:14:08;14.27;;;5.80;;
20318;SDS011;10317;47.254;11.314;2023-08-17T17:16:34;15.93;;;5.82;;
20318;SDS011;10317;47.254;11.314;2023-08-17T17:19:00;15.90;;;6.35;;
20318;SDS011;10317;47.254;11.314;2023-08-17T17:21:26;16.40;;;6.43;;
20318;SDS011;10317;47.254;11.314;2023-08-17T17:23:52;17.58;;;6.18;;
20318;SDS011;10317;47.254;11.314;2023-08-17T17:26:18;11.60;;;5.85;;
20318;SDS011;10317;47.254;11.314;2023-08-17T17:28:45;12.13;;;5.55;;
20318;SDS011;10317;47.254;11.314;2023-08-17T17:31:11;16.90;;;5.90;;
20318;SDS011;10317;47.254;11.314;2023-08-17T17:33:37;13.35;;;4.95;;
20318;SDS011;10317;47.254;11.314;2023-08-17T17:36:03;12.48;;;5.70;;
20318;SDS011;10317;47.254;11.314;2023-08-17T17:38:29;8.23;;;4.90;;
20318;SDS011;10317;47.254;11.314;2023-08-17T17:40:58;15.50;;;5.80;;
20318;SDS011;10317;47.254;11.314;2023-08-17T17:43:23;13.18;;;6.18;;
20318;SDS011;10317;47.254;11.314;2023-08-17T17:45:49;14.65;;;5.85;;
20318;SDS011;10317;47.254;11.314;2023-08-17T17:48:18;10.52;;;5.55;;
20318;SDS011;10317;47.254;11.314;2023-08-17T17:50:44;14.88;;;5.13;;
20318;SDS011;10317;47.254;11.314;2023-08-17T17:53:10;16.45;;;5.55;;
20318;SDS011;10317;47.254;11.314;2023-08-17T17:55:36;16.17;;;6.68;;
20318;SDS011;10317;47.254;11.314;2023-08-17T17:58:02;14.65;;;5.82;;
20318;SDS011;10317;47.254;11.314;2023-08-17T18:00:28;9.57;;;5.07;;
20318;SDS011;10317;47.254;11.314;2023-08-17T18:03:04;10.13;;;5.10;;
20318;SDS011;10317;47.254;11.314;2023-08-17T18:05:40;8.60;;;4.75;;
20318;SDS011;10317;47.254;11.314;2023-08-17T18:08:07;19.83;;;5.63;;
20318;SDS011;10317;47.254;11.314;2023-08-17T18:10:33;16.02;;;6.22;;
20318;SDS011;10317;47.254;11.314;2023-08-17T18:13:05;9.32;;;5.18;;
20318;SDS011;10317;47.254;11.314;2023-08-17T18:15:35;16.52;;;4.93;;
20318;SDS011;10317;47.254;11.314;2023-08-17T18:18:02;10.50;;;4.63;;
20318;SDS011;10317;47.254;11.314;2023-08-17T18:20:28;13.23;;;4.82;;
20318;SDS011;10317;47.254;11.314;2023-08-17T18:22:55;10.00;;;4.57;;
20318;SDS011;10317;47.254;11.314;2023-08-17T18:25:21;9.23;;;4.88;;
20318;SDS011;10317;47.254;11.314;2023-08-17T18:27:47;9.10;;;4.53;;
20318;SDS011;10317;47.254;11.314;2023-08-17T18:30:14;13.02;;;5.03;;
20318;SDS011;10317;47.254;11.314;2023-08-17T18:32:40;8.10;;;4.03;;
20318;SDS011;10317;47.254;11.314;2023-08-17T18:35:06;10.20;;;4.63;;
20318;SDS011;10317;47.254;11.314;2023-08-17T18:37:32;7.88;;;4.00;;
20318;SDS011;10317;47.254;11.314;2023-08-17T18:39:58;11.15;;;3.95;;
20318;SDS011;10317;47.254;11.314;2023-08-17T18:42:24;15.30;;;4.15;;
20318;SDS011;10317;47.254;11.314;2023-08-17T18:44:53;9.38;;;4.45;;
20318;SDS011;10317;47.254;11.314;2023-08-17T18:47:19;6.97;;;4.15;;
20318;SDS011;10317;47.254;11.314;2023-08-17T18:49:45;7.38;;;4.05;;
20318;SDS011;10317;47.254;11.314;2023-08-17T18:52:11;8.63;;;4.28;;
20318;SDS011;10317;47.254;11.314;2023-08-17T18:54:37;10.32;;;4.05;;
20318;SDS011;10317;47.254;11.314;2023-08-17T18:57:02;9.52;;;3.58;;
20318;SDS011;10317;47.254;11.314;2023-08-17T18:59:28;9.30;;;4.60;;
20318;SDS011;10317;47.254;11.314;2023-08-17T19:01:55;8.02;;;3.60;;
20318;SDS011;10317;47.254;11.314;2023-08-17T19:04:20;12.13;;;3.92;;
20318;SDS011;10317;47.254;11.314;2023-08-17T19:06:46;6.85;;;3.60;;
20318;SDS011;10317;47.254;11.314;2023-08-17T19:09:12;6.30;;;3.67;;
20318;SDS011;10317;47.254;11.314;2023-08-17T19:11:37;4.88;;;3.03;;
20318;SDS011;10317;47.254;11.314;2023-08-17T19:14:03;6.32;;;4.25;;
20318;SDS011;10317;47.254;11.314;2023-08-17T19:16:29;7.68;;;4.03;;
20318;SDS011;10317;47.254;11.314;2023-08-17T19:18:56;4.38;;;3.17;;
20318;SDS011;10317;47.254;11.314;2023-08-17T19:21:22;9.50;;;3.80;;
20318;SDS011;10317;47.254;11.314;2023-08-17T19:23:47;7.30;;;3.13;;
20318;SDS011;10317;47.254;11.314;2023-08-17T19:26:13;8.98;;;3.80;;
20318;SDS011;10317;47.254;11.314;2023-08-17T19:28:39;6.45;;;3.45;;
20318;SDS011;10317;47.254;11.314;2023-08-17T19:31:05;4.55;;;2.92;;
20318;SDS011;10317;47.254;11.314;2023-08-17T19:33:30;8.05;;;3.53;;
20318;SDS011;10317;47.254;11.314;2023-08-17T19:35:56;9.80;;;3.38;;
20318;SDS011;10317;47.254;11.314;2023-08-17T19:38:22;8.00;;;3.60;;
20318;SDS011;10317;47.254;11.314;2023-08-17T19:40:48;5.53;;;2.35;;
20318;SDS011;10317;47.254;11.314;2023-08-17T19:43:14;6.72;;;3.58;;
20318;SDS011;10317;47.254;11.314;2023-08-17T19:45:40;5.90;;;2.75;;
20318;SDS011;10317;47.254;11.314;2023-08-17T19:48:06;9.82;;;3.80;;
20318;SDS011;10317;47.254;11.314;2023-08-17T19:50:32;7.13;;;3.63;;
20318;SDS011;10317;47.254;11.314;2023-08-17T19:52:58;6.25;;;3.40;;
20318;SDS011;10317;47.254;11.314;2023-08-17T19:55:23;10.20;;;4.22;;
20318;SDS011;10317;47.254;11.314;2023-08-17T19:57:49;7.80;;;3.50;;
20318;SDS011;10317;47.254;11.314;2023-08-17T20:00:15;6.30;;;2.97;;
20318;SDS011;10317;47.254;11.314;2023-08-17T20:02:41;7.15;;;2.92;;
20318;SDS011;10317;47.254;11.314;2023-08-17T20:05:06;6.95;;;2.85;;
20318;SDS011;10317;47.254;11.314;2023-08-17T20:07:33;10.35;;;4.05;;
20318;SDS011;10317;47.254;11.314;2023-08-17T20:10:00;7.28;;;3.25;;
20318;SDS011;10317;47.254;11.314;2023-08-17T20:12:26;5.18;;;3.45;;
20318;SDS011;10317;47.254;11.314;2023-08-17T20:14:52;7.43;;;2.83;;
20318;SDS011;10317;47.254;11.314;2023-08-17T20:17:17;4.13;;;2.78;;
20318;SDS011;10317;47.254;11.314;2023-08-17T20:19:43;6.57;;;2.92;;
20318;SDS011;10317;47.254;11.314;2023-08-17T20:22:09;6.32;;;3.55;;
20318;SDS011;10317;47.254;11.314;2023-08-17T20:24:35;3.53;;;3.22;;
20318;SDS011;10317;47.254;11.314;2023-08-17T20:27:01;4.43;;;2.83;;
20318;SDS011;10317;47.254;11.314;2023-08-17T20:29:27;4.80;;;3.33;;
20318;SDS011;10317;47.254;11.314;2023-08-17T20:31:53;6.82;;;3.40;;
20318;SDS011;10317;47.254;11.314;2023-08-17T20:34:19;5.85;;;3.30;;
20318;SDS011;10317;47.254;11.314;2023-08-17T20:36:45;6.93;;;2.97;;
20318;SDS011;10317;47.254;11.314;2023-08-17T20:39:11;6.85;;;2.80;;
20318;SDS011;10317;47.254;11.314;2023-08-17T20:41:37;4.28;;;2.65;;
20318;SDS011;10317;47.254;11.314;2023-08-17T20:44:03;4.50;;;2.85;;
20318;SDS011;10317;47.254;11.314;2023-08-17T20:46:29;4.65;;;2.67;;
20318;SDS011;10317;47.254;11.314;2023-08-17T20:48:58;3.05;;;2.70;;
20318;SDS011;10317;47.254;11.314;2023-08-17T20:51:24;6.55;;;3.17;;
20318;SDS011;10317;47.254;11.314;2023-08-17T20:53:51;4.50;;;3.05;;
20318;SDS011;10317;47.254;11.314;2023-08-17T20:56:17;5.20;;;2.88;;
20318;SDS011;10317;47.254;11.314;2023-08-17T20:58:43;8.35;;;3.03;;
20318;SDS011;10317;47.254;11.314;2023-08-17T21:01:09;5.00;;;2.95;;
20318;SDS011;10317;47.254;11.314;2023-08-17T21:03:35;6.63;;;3.00;;
20318;SDS011;10317;47.254;11.314;2023-08-17T21:06:01;6.28;;;2.70;;
20318;SDS011;10317;47.254;11.314;2023-08-17T21:08:30;2.83;;;2.60;;
20318;SDS011;10317;47.254;11.314;2023-08-17T21:10:56;6.32;;;3.30;;
20318;SDS011;10317;47.254;11.314;2023-08-17T21:13:23;5.27;;;3.20;;
20318;SDS011;10317;47.254;11.314;2023-08-17T21:15:49;7.85;;;3.25;;
20318;SDS011;10317;47.254;11.314;2023-08-17T21:18:14;2.45;;;2.25;;
20318;SDS011;10317;47.254;11.314;2023-08-17T21:21:14;7.70;;;3.10;;
20318;SDS011;10317;47.254;11.314;2023-08-17T21:23:40;6.07;;;2.85;;
20318;SDS011;10317;47.254;11.314;2023-08-17T21:26:05;3.65;;;2.70;;
20318;SDS011;10317;47.254;11.314;2023-08-17T21:28:31;8.05;;;4.22;;
20318;SDS011;10317;47.254;11.314;2023-08-17T21:31:00;5.50;;;2.80;;
20318;SDS011;10317;47.254;11.314;2023-08-17T21:33:28;6.22;;;3.63;;
20318;SDS011;10317;47.254;11.314;2023-08-17T21:35:56;3.38;;;2.80;;
20318;SDS011;10317;47.254;11.314;2023-08-17T21:38:22;4.07;;;2.85;;
20318;SDS011;10317;47.254;11.314;2023-08-17T21:40:48;6.60;;;2.75;;
20318;SDS011;10317;47.254;11.314;2023-08-17T21:43:13;7.63;;;3.22;;
20318;SDS011;10317;47.254;11.314;2023-08-17T21:45:39;4.88;;;2.80;;
20318;SDS011;10317;47.254;11.314;2023-08-17T21:48:05;6.35;;;3.47;;
20318;SDS011;10317;47.254;11.314;2023-08-17T21:50:31;8.30;;;3.15;;
20318;SDS011;10317;47.254;11.314;2023-08-17T21:52:59;6.00;;;2.83;;
20318;SDS011;10317;47.254;11.314;2023-08-17T21:55:30;6.85;;;3.95;;
20318;SDS011;10317;47.254;11.314;2023-08-17T21:57:55;5.68;;;2.83;;
20318;SDS011;10317;47.254;11.314;2023-08-17T22:00:21;5.00;;;2.75;;
20318;SDS011;10317;47.254;11.314;2023-08-17T22:02:47;2.88;;;2.60;;
20318;SDS011;10317;47.254;11.314;2023-08-17T22:05:13;6.25;;;2.90;;
20318;SDS011;10317;47.254;11.314;2023-08-17T22:07:38;4.05;;;2.80;;
20318;SDS011;10317;47.254;11.314;2023-08-17T22:10:04;3.33;;;2.78;;
20318;SDS011;10317;47.254;11.314;2023-08-17T22:12:30;2.78;;;2.33;;
20318;SDS011;10317;47.254;11.314;2023-08-17T22:14:56;4.60;;;2.30;;
20318;SDS011;10317;47.254;11.314;2023-08-17T22:17:22;3.53;;;2.90;;
20318;SDS011;10317;47.254;11.314;2023-08-17T22:19:47;2.78;;;2.15;;
20318;SDS011;10317;47.254;11.314;2023-08-17T22:22:13;2.40;;;2.20;;
20318;SDS011;10317;47.254;11.314;2023-08-17T22:24:39;3.13;;;2.20;;
20318;SDS011;10317;47.254;11.314;2023-08-17T22:27:07;6.25;;;2.72;;
20318;SDS011;10317;47.254;11.314;2023-08-17T22:29:33;2.20;;;1.90;;
20318;SDS011;10317;47.254;11.314;2023-08-17T22:31:58;2.25;;;2.05;;
20318;SDS011;10317;47.254;11.314;2023-08-17T22:34:24;4.70;;;1.98;;
20318;SDS011;10317;47.254;11.314;2023-08-17T22:36:50;2.10;;;1.98;;
20318;SDS011;10317;47.254;11.314;2023-08-17T22:39:15;2.65;;;2.33;;
20318;SDS011;10317;47.254;11.314;2023-08-17T22:41:41;3.17;;;1.65;;
20318;SDS011;10317;47.254;11.314;2023-08-17T22:44:07;2.28;;;2.08;;
20318;SDS011;10317;47.254;11.314;2023-08-17T22:46:32;1.95;;;1.85;;
20318;SDS011;10317;47.254;11.314;2023-08-17T22:48:58;2.85;;;2.08;;
20318;SDS011;10317;47.254;11.314;2023-08-17T22:51:24;4.20;;;2.38;;
20318;SDS011;10317;47.254;11.314;2023-08-17T22:53:49;3.47;;;2.45;;
20318;SDS011;10317;47.254;11.314;2023-08-17T22:56:15;4.78;;;1.85;;
20318;SDS011;10317;47.254;11.314;2023-08-17T22:58:41;2.63;;;1.92;;
20318;SDS011;10317;47.254;11.314;2023-08-17T23:01:07;3.97;;;2.42;;
20318;SDS011;10317;47.254;11.314;2023-08-17T23:03:33;5.60;;;1.85;;
20318;SDS011;10317;47.254;11.314;2023-08-17T23:05:58;2.50;;;2.40;;
20318;SDS011;10317;47.254;11.314;2023-08-17T23:08:26;2.28;;;2.10;;
20318;SDS011;10317;47.254;11.314;2023-08-17T23:10:59;3.10;;;1.80;;
20318;SDS011;10317;47.254;11.314;2023-08-17T23:13:25;2.53;;;1.85;;
20318;SDS011;10317;47.254;11.314;2023-08-17T23:15:52;2.25;;;2.05;;
20318;SDS011;10317;47.254;11.314;2023-08-17T23:18:18;4.30;;;2.17;;
20318;SDS011;10317;47.254;11.314;2023-08-17T23:20:43;2.28;;;2.05;;
20318;SDS011;10317;47.254;11.314;2023-08-17T23:23:10;3.05;;;1.88;;
20318;SDS011;10317;47.254;11.314;2023-08-17T23:25:36;3.33;;;2.10;;
20318;SDS011;10317;47.254;11.314;2023-08-17T23:28:01;2.75;;;1.90;;
20318;SDS011;10317;47.254;11.314;2023-08-17T23:30:27;4.13;;;2.05;;
20318;SDS011;10317;47.254;11.314;2023-08-17T23:32:53;3.00;;;2.00;;
20318;SDS011;10317;47.254;11.314;2023-08-17T23:35:21;6.10;;;2.55;;
20318;SDS011;10317;47.254;11.314;2023-08-17T23:37:48;2.25;;;2.00;;
20318;SDS011;10317;47.254;11.314;2023-08-17T23:40:14;2.30;;;1.90;;
20318;SDS011;10317;47.254;11.314;2023-08-17T23:42:40;3.30;;;1.92;;
20318;SDS011;10317;47.254;11.314;2023-08-17T23:45:07;1.92;;;1.83;;
20318;SDS011;10317;47.254;11.314;2023-08-17T23:47:34;2.63;;;2.28;;
20318;SDS011;10317;47.254;11.314;2023-08-17T23:50:00;2.20;;;2.00;;
20318;SDS011;10317;47.254;11.314;2023-08-17T23:52:26;2.00;;;1.90;;
20318;SDS011;10317;47.254;11.314;2023-08-17T23:54:51;1.98;;;1.88;;
20318;SDS011;10317;47.254;11.314;2023-08-17T23:57:17;1.92;;;1.83;;
20318;SDS011;10317;47.254;11.314;2023-08-17T23:59:43;2.00;;;1.80;;
